createdAt,value
2018-01-03T00:01:10.709Z,99473.50
2018-01-03T00:03:36.720Z,99465.85
2018-01-03T00:06:02.665Z,99455.89
2018-01-03T00:08:28.745Z,99464.23
2018-01-03T00:10:54.718Z,99439.85
2018-01-03T00:13:20.798Z,99429.94
2018-01-03T00:15:46.738Z,99422.05
2018-01-03T00:18:12.773Z,99425.43
2018-01-03T00:20:38.729Z,99415.95
2018-01-03T00:23:04.691Z,99396.36
2018-01-03T00:25:30.625Z,99397.58
2018-01-03T00:27:56.597Z,99370.57
2018-01-03T00:30:22.562Z,99369.25
2018-01-03T00:32:48.590Z,99368.95
2018-01-03T00:35:14.544Z,99354.94
2018-01-03T00:37:40.507Z,99343.44
2018-01-03T00:40:06.457Z,99320.12
2018-01-03T00:42:32.405Z,99309.26
2018-01-03T00:44:58.366Z,99312.71
2018-01-03T00:47:24.382Z,99299.42
2018-01-03T00:49:50.329Z,99296.03
2018-01-03T00:52:16.296Z,99292.52
2018-01-03T00:54:42.423Z,99280.50
2018-01-03T00:57:08.385Z,99259.03
2018-01-03T00:59:34.347Z,99241.16
2018-01-03T01:02:00.300Z,99228.61
2018-01-03T01:04:26.269Z,99204.98
2018-01-03T01:06:52.217Z,99197.20
2018-01-03T01:09:18.190Z,99198.11
2018-01-03T01:11:44.185Z,99183.16
2018-01-03T01:14:10.134Z,99166.75
2018-01-03T01:16:36.098Z,99154.57
2018-01-03T01:19:02.061Z,99127.86
2018-01-03T01:21:28.017Z,99108.39
2018-01-03T01:23:53.969Z,99075.62
2018-01-03T01:26:19.922Z,99064.37
2018-01-03T01:28:45.872Z,99054.73
2018-01-03T01:31:11.825Z,99058.70
2018-01-03T01:33:37.789Z,99043.47
2018-01-03T01:36:03.734Z,99044.95
2018-01-03T01:38:29.728Z,99018.20
2018-01-03T01:40:55.678Z,99012.17
2018-01-03T01:43:21.905Z,99002.13
2018-01-03T01:45:47.870Z,98993.36
2018-01-03T01:48:13.821Z,98987.37
2018-01-03T01:50:39.764Z,98986.49
2018-01-03T01:53:05.717Z,98968.01
2018-01-03T01:55:31.670Z,98963.42
2018-01-03T01:57:57.717Z,98941.92
2018-01-03T02:00:23.684Z,98947.92
2018-01-03T02:02:49.625Z,98910.95
2018-01-03T02:05:15.605Z,98874.29
2018-01-03T02:07:41.553Z,98857.20
2018-01-03T02:10:07.486Z,98840.86
2018-01-03T02:12:33.457Z,98813.45
2018-01-03T02:14:59.408Z,98789.13
2018-01-03T02:17:25.349Z,98766.52
2018-01-03T02:19:51.313Z,98760.52
2018-01-03T02:22:17.273Z,98738.27
2018-01-03T02:24:43.216Z,98714.72
2018-01-03T02:27:09.181Z,98691.48
2018-01-03T02:29:35.142Z,98678.73
2018-01-03T02:32:01.076Z,98660.34
2018-01-03T02:34:27.084Z,98652.44
2018-01-03T02:36:53.006Z,98643.39
2018-01-03T02:39:18.948Z,98619.06
2018-01-03T02:41:44.896Z,98599.06
2018-01-03T02:44:10.865Z,98598.55
2018-01-03T02:46:36.833Z,98582.02
2018-01-03T02:49:02.774Z,98558.98
2018-01-03T02:51:28.743Z,98550.48
2018-01-03T02:53:54.693Z,98525.94
2018-01-03T02:56:20.637Z,98542.45
2018-01-03T02:58:46.585Z,98525.93
2018-01-03T03:01:12.534Z,98517.29
2018-01-03T03:03:38.588Z,98494.28
2018-01-03T03:06:04.644Z,98484.14
2018-01-03T03:08:30.581Z,98470.55
2018-01-03T03:10:56.552Z,98465.48
2018-01-03T03:13:22.509Z,98460.40
2018-01-03T03:15:48.477Z,98425.19
2018-01-03T03:18:14.436Z,98407.35
2018-01-03T03:20:40.405Z,98385.13
2018-01-03T03:23:06.369Z,98374.89
2018-01-03T03:25:32.334Z,98370.42
2018-01-03T03:27:58.273Z,98358.13
2018-01-03T03:30:24.225Z,98337.97
2018-01-03T03:32:50.193Z,98308.52
2018-01-03T03:35:16.164Z,98305.92
2018-01-03T03:37:42.109Z,98302.37
2018-01-03T03:40:08.077Z,98281.75
2018-01-03T03:42:34.034Z,98265.34
2018-01-03T03:44:59.985Z,98249.94
2018-01-03T03:47:25.942Z,98236.56
2018-01-03T03:49:51.881Z,98212.19
2018-01-03T03:52:17.838Z,98213.16
2018-01-03T03:54:43.805Z,98202.06
2018-01-03T03:57:09.766Z,98212.22
2018-01-03T03:59:35.731Z,98207.81
2018-01-03T04:02:01.670Z,98180.09
2018-01-03T04:04:27.632Z,98182.73
2018-01-03T04:06:53.584Z,98152.98
2018-01-03T04:09:19.541Z,98146.47
2018-01-03T04:11:45.494Z,98144.44
2018-01-03T04:14:11.492Z,98161.59
2018-01-03T04:16:37.489Z,98156.31
2018-01-03T04:19:03.425Z,98146.05
2018-01-03T04:21:29.385Z,98137.64
2018-01-03T04:23:55.337Z,98145.75
2018-01-03T04:26:21.297Z,98130.89
2018-01-03T04:28:47.241Z,98136.89
2018-01-03T04:31:13.172Z,98148.36
2018-01-03T04:33:39.133Z,98173.03
2018-01-03T04:36:05.253Z,98214.11
2018-01-03T04:38:31.213Z,98373.25
2018-01-03T04:40:57.160Z,98367.98
2018-01-03T04:43:23.175Z,98390.15
2018-01-03T04:45:49.128Z,98403.73
2018-01-03T04:48:15.101Z,98384.97
2018-01-03T04:50:41.041Z,98324.48
2018-01-03T04:53:06.985Z,98338.77
2018-01-03T04:55:32.929Z,98283.25
2018-01-03T04:57:58.905Z,98265.69
2018-01-03T05:00:24.891Z,98210.98
2018-01-03T05:02:50.836Z,98215.52
2018-01-03T05:05:16.780Z,98214.23
2018-01-03T05:07:42.817Z,98221.31
2018-01-03T05:10:08.761Z,98240.62
2018-01-03T05:12:34.721Z,98223.29
2018-01-03T05:15:00.811Z,98240.22
2018-01-03T05:17:26.757Z,98265.00
2018-01-03T05:19:52.716Z,98301.44
2018-01-03T05:22:18.664Z,98318.98
2018-01-03T05:24:44.617Z,98322.84
2018-01-03T05:27:10.561Z,98301.73
2018-01-03T05:29:36.517Z,98303.05
2018-01-03T05:32:02.485Z,98287.91
2018-01-03T05:34:28.565Z,98287.70
2018-01-03T05:36:54.517Z,98290.61
2018-01-03T05:39:20.452Z,98284.95
2018-01-03T05:41:46.415Z,98284.13
2018-01-03T05:44:12.353Z,98290.83
2018-01-03T05:46:38.321Z,98291.44
2018-01-03T05:49:04.250Z,98300.98
2018-01-03T05:51:30.214Z,98290.23
2018-01-03T05:53:56.156Z,98279.89
2018-01-03T05:56:22.125Z,98280.78
2018-01-03T05:58:48.062Z,98288.70
2018-01-03T06:01:14.019Z,98283.05
2018-01-03T06:03:39.976Z,98289.84
2018-01-03T06:06:05.949Z,98293.70
2018-01-03T06:08:31.945Z,98290.36
2018-01-03T06:10:57.886Z,98275.91
2018-01-03T06:13:23.853Z,98267.81
2018-01-03T06:15:49.797Z,98271.28
2018-01-03T06:18:15.764Z,98275.65
2018-01-03T06:20:41.733Z,98281.23
2018-01-03T06:23:07.680Z,98268.80
2018-01-03T06:25:33.645Z,98262.45
2018-01-03T06:27:59.586Z,98262.84
2018-01-03T06:30:25.529Z,98265.36
2018-01-03T06:32:51.520Z,98265.18
2018-01-03T06:35:17.463Z,98251.98
2018-01-03T06:37:43.430Z,98256.05
2018-01-03T06:40:09.381Z,98284.80
2018-01-03T06:42:35.321Z,98280.70
2018-01-03T06:45:01.341Z,98261.22
2018-01-03T06:47:27.290Z,98255.84
2018-01-03T06:49:53.233Z,98242.25
2018-01-03T06:52:19.197Z,98234.77
2018-01-03T06:54:45.156Z,98230.72
2018-01-03T06:57:11.106Z,98228.42
2018-01-03T06:59:37.150Z,98228.62
2018-01-03T07:02:03.093Z,98214.83
2018-01-03T07:04:29.053Z,98211.67
2018-01-03T07:06:55.017Z,98214.69
2018-01-03T07:09:21.037Z,98224.04
2018-01-03T07:11:46.997Z,98233.68
2018-01-03T07:14:12.941Z,98210.47
2018-01-03T07:16:38.894Z,98214.31
2018-01-03T07:19:04.849Z,98211.67
2018-01-03T07:21:30.805Z,98205.70
2018-01-03T07:23:56.769Z,98208.86
2018-01-03T07:26:22.708Z,98216.66
2018-01-03T07:28:48.682Z,98248.36
2018-01-03T07:31:14.614Z,98240.84
2018-01-03T07:33:40.573Z,98260.53
2018-01-03T07:36:06.513Z,98247.64
2018-01-03T07:38:32.496Z,98249.59
2018-01-03T07:40:58.447Z,98257.39
2018-01-03T07:43:24.389Z,98257.66
2018-01-03T07:45:50.340Z,98282.73
2018-01-03T07:48:16.284Z,98267.12
2018-01-03T07:50:42.249Z,98288.13
2018-01-03T07:53:08.211Z,98308.46
2018-01-03T07:55:34.172Z,98340.12
2018-01-03T07:58:00.114Z,98358.59
2018-01-03T08:00:26.089Z,98367.02
2018-01-03T08:02:52.044Z,98376.16
2018-01-03T08:05:17.976Z,98369.34
2018-01-03T08:07:43.957Z,98373.72
2018-01-03T08:10:09.912Z,98374.30
2018-01-03T08:12:35.949Z,98373.79
2018-01-03T08:15:01.986Z,98378.19
2018-01-03T08:17:27.953Z,98370.27
2018-01-03T08:19:53.896Z,98372.91
2018-01-03T08:22:19.865Z,98363.06
2018-01-03T08:24:45.814Z,98347.61
2018-01-03T08:27:11.769Z,98346.91
2018-01-03T08:29:37.721Z,98349.55
2018-01-03T08:32:03.681Z,98354.09
2018-01-03T08:34:29.630Z,98358.86
2018-01-03T08:36:55.580Z,98351.74
2018-01-03T08:39:21.573Z,98342.06
2018-01-03T08:41:48.088Z,98349.50
2018-01-03T08:44:14.030Z,98352.85
2018-01-03T08:46:40.068Z,98362.31
2018-01-03T08:49:06.086Z,98372.95
2018-01-03T08:51:32.065Z,98384.95
2018-01-03T08:53:57.997Z,98386.23
2018-01-03T08:56:24.059Z,98401.27
2018-01-03T08:58:50.005Z,98400.37
2018-01-03T09:01:15.964Z,98411.44
2018-01-03T09:03:41.933Z,98425.13
2018-01-03T09:06:07.894Z,98437.95
2018-01-03T09:08:33.844Z,98422.11
2018-01-03T09:10:59.781Z,98455.80
2018-01-03T09:13:25.741Z,98460.29
2018-01-03T09:15:51.676Z,98473.78
2018-01-03T09:18:17.654Z,98482.71
2018-01-03T09:20:43.642Z,98495.67
2018-01-03T09:23:09.601Z,98496.91
2018-01-03T09:25:35.557Z,98503.92
2018-01-03T09:28:01.733Z,98526.58
2018-01-03T09:30:27.689Z,98513.27
2018-01-03T09:32:53.651Z,98530.23
2018-01-03T09:35:19.612Z,98531.86
2018-01-03T09:37:45.553Z,98542.11
2018-01-03T09:40:11.518Z,98535.30
2018-01-03T09:42:37.496Z,98543.23
2018-01-03T09:45:03.452Z,98555.30
2018-01-03T09:47:29.392Z,98560.08
2018-01-03T09:49:55.363Z,98555.41
2018-01-03T09:52:21.330Z,98569.02
2018-01-03T09:54:47.329Z,98570.44
2018-01-03T09:57:13.350Z,98571.55
2018-01-03T09:59:39.389Z,98591.56
2018-01-03T10:02:05.348Z,98587.80
2018-01-03T10:04:31.354Z,98600.59
2018-01-03T10:06:57.525Z,98605.56
2018-01-03T10:09:23.469Z,98619.08
2018-01-03T10:11:49.433Z,98612.89
2018-01-03T10:14:15.402Z,98631.58
2018-01-03T10:16:41.378Z,98629.23
2018-01-03T10:19:07.353Z,98641.10
2018-01-03T10:21:33.349Z,98638.38
2018-01-03T10:23:59.362Z,98641.73
2018-01-03T10:26:25.305Z,98637.66
2018-01-03T10:28:51.245Z,98653.70
2018-01-03T10:31:17.241Z,98642.84
2018-01-03T10:33:43.290Z,98661.21
2018-01-03T10:36:09.256Z,98664.16
2018-01-03T10:38:35.212Z,98639.48
2018-01-03T10:41:01.181Z,98674.84
2018-01-03T10:43:27.122Z,98695.21
2018-01-03T10:45:53.113Z,98676.94
2018-01-03T10:48:19.056Z,98671.18
2018-01-03T10:50:45.025Z,98680.42
2018-01-03T10:53:11.020Z,98678.89
2018-01-03T10:55:36.965Z,98675.01
2018-01-03T10:58:02.950Z,98677.56
2018-01-03T11:00:28.893Z,98670.36
2018-01-03T11:02:54.910Z,98682.14
2018-01-03T11:05:20.869Z,98685.88
2018-01-03T11:07:46.813Z,98680.92
2018-01-03T11:10:12.782Z,98693.91
2018-01-03T11:12:38.814Z,98694.83
2018-01-03T11:15:04.785Z,98706.92
2018-01-03T11:17:30.735Z,98703.78
2018-01-03T11:19:56.689Z,98710.05
2018-01-03T11:22:22.674Z,98706.72
2018-01-03T11:24:48.618Z,98734.92
2018-01-03T11:27:14.698Z,98716.76
2018-01-03T11:29:40.631Z,98716.66
2018-01-03T11:32:06.594Z,98731.17
2018-01-03T11:34:32.582Z,98731.28
2018-01-03T11:36:58.525Z,98752.08
2018-01-03T11:39:24.481Z,98737.26
2018-01-03T11:41:50.454Z,98741.84
2018-01-03T11:44:16.430Z,98751.89
2018-01-03T11:46:42.386Z,98760.73
2018-01-03T11:49:08.337Z,98777.40
2018-01-03T11:51:34.494Z,98769.16
2018-01-03T11:54:00.494Z,98768.24
2018-01-03T11:56:26.463Z,98788.66
2018-01-03T11:58:52.422Z,98790.77
2018-01-03T12:01:18.373Z,98782.66
2018-01-03T12:03:44.327Z,98786.10
2018-01-03T12:06:10.281Z,98791.27
2018-01-03T12:08:36.214Z,98810.19
2018-01-03T12:11:02.173Z,98805.47
2018-01-03T12:13:28.130Z,98811.36
2018-01-03T12:15:54.079Z,98801.20
2018-01-03T12:18:20.041Z,98821.08
2018-01-03T12:20:45.990Z,98829.58
2018-01-03T12:23:11.977Z,98826.33
2018-01-03T12:25:37.966Z,98831.61
2018-01-03T12:28:03.910Z,98840.22
2018-01-03T12:30:29.866Z,98851.00
2018-01-03T12:32:55.824Z,98847.95
2018-01-03T12:35:21.786Z,98864.61
2018-01-03T12:37:47.750Z,98873.91
2018-01-03T12:40:13.687Z,98858.70
2018-01-03T12:42:39.648Z,98909.16
2018-01-03T12:45:05.725Z,98901.69
2018-01-03T12:47:31.689Z,98881.88
2018-01-03T12:49:57.626Z,98899.16
2018-01-03T12:52:23.649Z,98897.14
2018-01-03T12:54:49.589Z,98884.62
2018-01-03T12:57:15.544Z,98899.48
2018-01-03T12:59:41.489Z,98905.28
2018-01-03T13:02:07.464Z,98894.05
2018-01-03T13:04:33.430Z,98902.13
2018-01-03T13:06:59.397Z,98903.73
2018-01-03T13:09:25.351Z,98913.31
2018-01-03T13:11:51.305Z,98916.24
2018-01-03T13:14:17.266Z,98930.41
2018-01-03T13:16:43.236Z,98935.93
2018-01-03T13:19:09.186Z,98946.29
2018-01-03T13:21:35.132Z,98952.83
2018-01-03T13:24:01.077Z,98955.52
2018-01-03T13:26:27.066Z,98962.94
2018-01-03T13:28:53.013Z,98962.86
2018-01-03T13:31:18.966Z,98966.20
2018-01-03T13:33:44.915Z,98976.98
2018-01-03T13:36:10.904Z,98973.13
2018-01-03T13:38:36.836Z,98991.05
2018-01-03T13:41:02.840Z,98967.63
2018-01-03T13:43:28.794Z,98991.11
2018-01-03T13:45:54.733Z,98996.95
2018-01-03T13:48:20.702Z,99003.05
2018-01-03T13:50:46.654Z,99004.31
2018-01-03T13:53:12.600Z,99006.14
2018-01-03T13:55:38.548Z,99030.30
2018-01-03T13:58:04.505Z,99013.78
2018-01-03T14:00:30.464Z,99020.49
2018-01-03T14:02:56.442Z,99024.73
2018-01-03T14:05:22.400Z,99047.73
2018-01-03T14:07:48.341Z,99041.15
2018-01-03T14:10:14.297Z,99043.50
2018-01-03T14:12:40.239Z,99069.45
2018-01-03T14:15:06.197Z,99072.94
2018-01-03T14:17:32.150Z,99092.00
2018-01-03T14:19:58.094Z,99087.55
2018-01-03T14:22:24.069Z,99098.45
2018-01-03T14:24:50.093Z,99097.14
2018-01-03T15:53:16.059Z,99268.87
2018-01-03T15:55:42.047Z,99280.62
2018-01-03T15:58:08.063Z,99280.27
2018-01-03T16:00:34.096Z,99274.33
2018-01-03T16:03:00.105Z,99274.58
2018-01-03T16:05:26.108Z,99274.61
2018-01-03T16:07:52.096Z,99294.65
2018-01-03T16:10:18.111Z,99291.24
2018-01-03T16:12:44.097Z,99302.93
2018-01-03T16:15:10.087Z,99298.77
2018-01-03T16:17:36.083Z,99283.72
2018-01-03T16:20:02.594Z,99282.86
2018-01-03T16:22:29.048Z,99288.42
2018-01-03T16:24:55.573Z,99298.66
2018-01-03T16:27:22.149Z,99297.69
2018-01-03T16:29:48.155Z,99297.91
2018-01-03T16:32:14.150Z,99288.58
2018-01-03T16:34:43.131Z,99294.80
2018-01-03T16:37:09.316Z,99287.79
2018-01-03T16:39:35.286Z,99275.06
2018-01-03T16:42:01.326Z,99275.73
2018-01-03T16:44:27.342Z,99281.65
2018-01-03T16:46:53.338Z,99283.50
2018-01-03T16:49:19.342Z,99288.73
2018-01-03T16:51:45.357Z,99282.66
2018-01-03T16:54:12.056Z,99283.06
2018-01-03T16:56:38.060Z,99282.13
2018-01-03T16:59:04.049Z,99280.24
2018-01-03T17:01:30.128Z,99281.31
2018-01-03T17:06:31.555Z,99283.47
2018-01-03T17:08:57.546Z,99289.22
2018-01-03T17:11:23.565Z,99285.89
2018-01-03T17:13:50.297Z,99299.78
2018-01-03T17:16:17.768Z,99309.16
2018-01-03T17:18:45.166Z,99318.06
2018-01-03T17:21:11.370Z,99317.73
2018-01-03T17:23:37.369Z,99309.25
2018-01-03T17:26:03.365Z,99308.48
2018-01-03T17:28:29.402Z,99317.35
2018-01-03T17:30:55.398Z,99327.64
2018-01-03T17:33:21.350Z,99309.98
2018-01-03T17:35:47.343Z,99309.53
2018-01-03T17:38:13.334Z,99307.34
2018-01-03T17:40:39.325Z,99312.98
2018-01-03T17:45:37.065Z,99312.02
2018-01-03T17:48:03.102Z,99315.88
2018-01-03T17:50:29.101Z,99312.27
2018-01-03T17:52:55.198Z,99321.75
2018-01-03T17:55:21.258Z,99346.27
2018-01-03T17:57:47.244Z,99336.20
2018-01-03T18:00:13.254Z,99336.78
2018-01-03T18:02:40.292Z,99318.65
2018-01-03T18:05:06.511Z,99319.11
2018-01-03T18:07:32.514Z,99347.82
2018-01-03T18:09:58.525Z,99359.88
2018-01-03T18:12:24.511Z,99379.97
2018-01-03T18:14:50.481Z,99369.35
2018-01-03T18:17:16.461Z,99344.69
2018-01-03T18:19:42.518Z,99375.61
2018-01-03T18:22:08.716Z,99363.14
2018-01-03T18:24:34.970Z,99348.38
2018-01-03T18:27:00.946Z,99359.34
2018-01-03T18:29:26.981Z,99363.08
2018-01-03T18:31:53.203Z,99361.28
2018-01-03T18:34:19.380Z,99350.44
2018-01-03T18:36:45.468Z,99348.48
2018-01-03T18:39:11.685Z,99341.41
2018-01-03T18:41:38.048Z,99351.34
2018-01-03T18:44:04.120Z,99338.13
2018-01-03T18:46:30.150Z,99328.76
2018-01-03T18:48:56.147Z,99321.06
2018-01-03T18:51:22.133Z,99332.58
2018-01-03T18:53:48.100Z,99334.16
2018-01-03T18:56:14.099Z,99340.23
2018-01-03T18:58:40.071Z,99353.88
2018-01-03T19:01:06.038Z,99354.73
2018-01-03T19:03:32.010Z,99364.85
2018-01-03T19:05:57.967Z,99360.98
2018-01-03T19:08:23.938Z,99369.39
2018-01-03T19:10:49.934Z,99356.47
2018-01-03T19:13:15.930Z,99368.33
2018-01-03T19:15:41.945Z,99367.66
2018-01-03T19:18:07.905Z,99346.27
2018-01-03T19:20:33.902Z,99360.60
2018-01-03T19:22:59.856Z,99385.11
2018-01-03T19:25:25.832Z,99392.26
2018-01-03T19:27:51.835Z,99377.15
2018-01-03T19:30:17.820Z,99362.53
2018-01-03T19:32:43.857Z,99368.77
2018-01-03T19:35:09.842Z,99362.66
2018-01-03T19:37:35.836Z,99367.49
2018-01-03T19:40:01.867Z,99376.67
2018-01-03T19:42:27.868Z,99387.38
2018-01-03T19:44:53.866Z,99376.56
2018-01-03T19:47:20.195Z,99391.77
2018-01-03T19:49:46.697Z,99390.16
2018-01-03T19:52:12.691Z,99388.41
2018-01-03T19:54:38.660Z,99409.27
2018-01-03T19:57:04.617Z,99423.02
2018-01-03T19:59:34.203Z,99422.95
2018-01-03T20:02:00.305Z,99411.77
2018-01-03T20:04:26.262Z,99407.71
2018-01-03T20:06:52.213Z,99413.44
2018-01-03T20:09:18.508Z,99428.94
2018-01-03T20:11:44.498Z,99441.88
2018-01-03T20:14:10.507Z,99439.30
2018-01-03T20:16:36.475Z,99453.19
2018-01-03T20:19:02.450Z,99455.42
2018-01-03T20:21:29.022Z,99445.83
2018-01-03T20:23:55.135Z,99452.34
2018-01-03T20:26:21.207Z,99453.42
2018-01-03T20:28:48.478Z,99455.36
2018-01-03T20:31:14.532Z,99461.05
2018-01-03T20:33:40.674Z,99468.56
2018-01-03T20:36:08.926Z,99481.94
2018-01-03T20:38:35.440Z,99415.37
2018-01-03T20:41:01.644Z,99441.95
2018-01-03T20:43:28.564Z,99447.02
2018-01-03T20:45:54.914Z,99442.79
2018-01-03T20:48:21.355Z,99449.70
2018-01-03T20:50:52.890Z,99460.64
2018-01-03T20:53:19.103Z,99459.30
2018-01-03T20:55:45.360Z,99468.20
2018-01-03T20:58:11.857Z,99464.94
2018-01-03T21:00:38.540Z,99476.01
2018-01-03T21:03:05.141Z,99472.42
2018-01-03T21:05:31.255Z,99458.44
2018-01-03T21:07:57.600Z,99462.67
2018-01-03T21:10:23.990Z,99452.85
2018-01-03T21:12:50.161Z,99448.28
2018-01-03T21:15:16.539Z,99458.44
2018-01-03T21:17:42.507Z,99445.13
2018-01-03T21:20:08.517Z,99437.48
2018-01-03T21:22:34.477Z,99440.56
2018-01-03T21:25:00.464Z,99439.70
2018-01-03T21:27:26.424Z,99444.42
2018-01-03T21:29:52.382Z,99441.77
2018-01-03T21:32:18.776Z,99444.28
2018-01-03T21:34:44.750Z,99446.95
2018-01-03T21:37:10.710Z,99446.69
2018-01-03T21:39:36.669Z,99440.36
2018-01-03T21:42:02.645Z,99442.59
2018-01-03T21:44:28.612Z,99448.79
2018-01-03T21:46:54.677Z,99447.47
2018-01-03T21:49:20.668Z,99461.58
2018-01-03T21:51:46.960Z,99461.76
2018-01-03T21:54:13.032Z,99457.72
2018-01-03T21:56:39.102Z,99463.58
2018-01-03T21:59:05.116Z,99467.58
2018-01-03T22:01:31.176Z,99469.23
2018-01-03T22:03:57.411Z,99454.71
2018-01-03T22:06:23.462Z,99455.48
2018-01-03T22:08:49.422Z,99448.81
2018-01-03T22:11:15.429Z,99452.20
2018-01-03T22:13:41.403Z,99450.55
2018-01-03T22:16:07.357Z,99445.13
2018-01-03T22:18:33.342Z,99451.19
2018-01-03T22:21:03.546Z,99449.70
2018-01-03T22:23:30.170Z,99437.80
2018-01-03T22:28:27.794Z,99437.71
2018-01-03T22:33:25.143Z,99437.22
2018-01-03T22:35:54.530Z,99444.83
2018-01-03T22:38:20.512Z,99444.36
2018-01-03T22:40:46.481Z,99440.31
2018-01-03T22:43:12.459Z,99441.50
2018-01-03T22:45:38.409Z,99446.98
2018-01-03T22:48:04.348Z,99440.79
2018-01-03T22:50:30.315Z,99440.81
2018-01-03T22:52:56.325Z,99437.50
2018-01-03T22:55:22.299Z,99463.28
2018-01-03T22:57:48.281Z,99462.94
2018-01-03T23:00:14.221Z,99471.06
2018-01-03T23:02:40.197Z,99476.58
2018-01-03T23:05:06.266Z,99483.94
2018-01-03T23:07:32.226Z,99478.36
2018-01-03T23:09:58.197Z,99481.16
2018-01-03T23:12:24.125Z,99483.15
2018-01-03T23:14:50.085Z,99483.74
2018-01-03T23:17:16.055Z,99487.20
2018-01-03T23:19:42.115Z,99490.90
2018-01-03T23:22:08.066Z,99482.30
2018-01-03T23:24:34.042Z,99488.84
2018-01-03T23:27:00.006Z,99502.37
2018-01-03T23:29:25.977Z,99489.16
2018-01-03T23:31:51.974Z,99487.64
2018-01-03T23:34:17.969Z,99483.25
2018-01-03T23:36:43.932Z,99483.66
2018-01-03T23:39:09.897Z,99489.50
2018-01-03T23:41:35.859Z,99497.47
2018-01-03T23:44:01.818Z,99493.88
2018-01-03T23:46:27.770Z,99492.27
2018-01-03T23:48:53.710Z,99498.19
2018-01-03T23:51:19.741Z,99499.97
2018-01-03T23:53:45.706Z,99498.95
2018-01-03T23:56:11.657Z,99505.77
2018-01-03T23:58:37.621Z,99495.53
